sensor_id;sensor_type;location;lat;lon;timestamp;pressure;altitude;pressure_sealevel;temperature;humidity
55914;BME280;58179;48.776;9.124;2022-08-18T00:00:09;97093.88;;;19.55;77.42
55914;BME280;58179;48.776;9.124;2022-08-18T00:02:40;97087.72;;;19.55;77.90
55914;BME280;58179;48.776;9.124;2022-08-18T00:05:08;97100.03;;;19.56;79.25
55914;BME280;58179;48.776;9.124;2022-08-18T00:07:34;97087.53;;;19.34;76.59
55914;BME280;58179;48.776;9.124;2022-08-18T00:10:02;97091.16;;;19.29;76.83
55914;BME280;58179;48.776;9.124;2022-08-18T00:12:35;97097.78;;;19.15;77.43
55914;BME280;58179;48.776;9.124;2022-08-18T00:15:03;97095.72;;;19.20;79.79
55914;BME280;58179;48.776;9.124;2022-08-18T00:17:32;97084.38;;;19.23;79.54
55914;BME280;58179;48.776;9.124;2022-08-18T00:19:59;97081.50;;;19.20;79.01
55914;BME280;58179;48.776;9.124;2022-08-18T00:22:25;97075.66;;;19.01;77.46
55914;BME280;58179;48.776;9.124;2022-08-18T00:24:54;97073.91;;;19.05;78.65
55914;BME280;58179;48.776;9.124;2022-08-18T00:27:24;97067.94;;;19.08;79.05
55914;BME280;58179;48.776;9.124;2022-08-18T00:29:52;97069.03;;;19.07;77.60
55914;BME280;58179;48.776;9.124;2022-08-18T00:32:21;97067.28;;;19.02;76.94
55914;BME280;58179;48.776;9.124;2022-08-18T00:34:49;97066.03;;;19.00;78.69
55914;BME280;58179;48.776;9.124;2022-08-18T00:37:15;97069.97;;;18.93;77.08
55914;BME280;58179;48.776;9.124;2022-08-18T00:39:41;97069.28;;;18.88;77.13
55914;BME280;58179;48.776;9.124;2022-08-18T00:42:18;97065.81;;;18.87;77.22
55914;BME280;58179;48.776;9.124;2022-08-18T00:44:45;97061.88;;;18.85;77.27
55914;BME280;58179;48.776;9.124;2022-08-18T00:47:11;97063.47;;;18.86;79.11
55914;BME280;58179;48.776;9.124;2022-08-18T00:49:40;97060.03;;;18.94;80.15
55914;BME280;58179;48.776;9.124;2022-08-18T00:52:09;97066.81;;;19.00;80.28
55914;BME280;58179;48.776;9.124;2022-08-18T00:54:37;97058.31;;;19.07;80.10
55914;BME280;58179;48.776;9.124;2022-08-18T00:57:07;97053.09;;;19.10;80.08
55914;BME280;58179;48.776;9.124;2022-08-18T00:59:39;97046.63;;;19.11;80.44
55914;BME280;58179;48.776;9.124;2022-08-18T01:02:11;97046.31;;;19.13;80.70
55914;BME280;58179;48.776;9.124;2022-08-18T01:04:46;97039.53;;;19.15;81.12
55914;BME280;58179;48.776;9.124;2022-08-18T01:07:22;97045.84;;;19.19;81.10
55914;BME280;58179;48.776;9.124;2022-08-18T01:09:50;97047.72;;;19.19;81.67
55914;BME280;58179;48.776;9.124;2022-08-18T01:12:17;97042.84;;;19.21;82.51
55914;BME280;58179;48.776;9.124;2022-08-18T01:14:44;97036.38;;;19.22;82.16
55914;BME280;58179;48.776;9.124;2022-08-18T01:17:11;97032.75;;;19.26;78.68
55914;BME280;58179;48.776;9.124;2022-08-18T01:19:57;97034.50;;;19.22;79.86
55914;BME280;58179;48.776;9.124;2022-08-18T01:22:55;97037.31;;;19.17;80.73
55914;BME280;58179;48.776;9.124;2022-08-18T01:28:02;97025.16;;;19.20;82.70
55914;BME280;58179;48.776;9.124;2022-08-18T01:30:31;97019.78;;;19.20;83.07
55914;BME280;58179;48.776;9.124;2022-08-18T01:32:57;97010.66;;;19.21;83.39
55914;BME280;58179;48.776;9.124;2022-08-18T01:35:25;97006.38;;;19.20;83.12
55914;BME280;58179;48.776;9.124;2022-08-18T01:37:53;97013.03;;;19.22;82.34
55914;BME280;58179;48.776;9.124;2022-08-18T01:40:22;97010.66;;;19.21;82.35
55914;BME280;58179;48.776;9.124;2022-08-18T01:42:49;97012.84;;;19.19;83.18
55914;BME280;58179;48.776;9.124;2022-08-18T01:45:17;96996.75;;;19.19;83.35
55914;BME280;58179;48.776;9.124;2022-08-18T01:47:45;97001.31;;;19.18;83.87
55914;BME280;58179;48.776;9.124;2022-08-18T01:50:11;96989.81;;;19.18;84.06
55914;BME280;58179;48.776;9.124;2022-08-18T01:52:38;96985.22;;;19.18;83.89
55914;BME280;58179;48.776;9.124;2022-08-18T01:55:06;96977.16;;;19.18;81.79
55914;BME280;58179;48.776;9.124;2022-08-18T01:57:35;96970.56;;;19.16;80.22
55914;BME280;58179;48.776;9.124;2022-08-18T02:00:04;96975.63;;;19.09;79.39
55914;BME280;58179;48.776;9.124;2022-08-18T02:02:32;96974.03;;;18.99;81.66
55914;BME280;58179;48.776;9.124;2022-08-18T02:05:06;96975.91;;;18.99;83.21
55914;BME280;58179;48.776;9.124;2022-08-18T02:07:35;96987.91;;;19.01;84.16
55914;BME280;58179;48.776;9.124;2022-08-18T02:10:02;96987.28;;;19.04;84.72
55914;BME280;58179;48.776;9.124;2022-08-18T02:12:29;96991.53;;;19.05;82.61
55914;BME280;58179;48.776;9.124;2022-08-18T02:14:55;96982.69;;;19.05;82.39
55914;BME280;58179;48.776;9.124;2022-08-18T02:17:21;96975.31;;;19.02;83.21
55914;BME280;58179;48.776;9.124;2022-08-18T02:19:47;96976.06;;;19.02;83.50
55914;BME280;58179;48.776;9.124;2022-08-18T02:22:18;96974.66;;;19.05;82.75
55914;BME280;58179;48.776;9.124;2022-08-18T02:24:44;96976.53;;;19.04;82.45
55914;BME280;58179;48.776;9.124;2022-08-18T02:27:12;96974.66;;;19.05;81.34
55914;BME280;58179;48.776;9.124;2022-08-18T02:29:40;96986.47;;;19.04;80.49
55914;BME280;58179;48.776;9.124;2022-08-18T02:32:07;96989.03;;;19.00;81.53
55914;BME280;58179;48.776;9.124;2022-08-18T02:34:33;96988.22;;;19.00;81.85
55914;BME280;58179;48.776;9.124;2022-08-18T02:37:00;96984.44;;;19.01;81.25
55914;BME280;58179;48.776;9.124;2022-08-18T02:39:26;96979.53;;;19.03;81.99
55914;BME280;58179;48.776;9.124;2022-08-18T02:41:52;96975.31;;;19.02;81.82
55914;BME280;58179;48.776;9.124;2022-08-18T02:44:18;96973.72;;;19.01;82.13
55914;BME280;58179;48.776;9.124;2022-08-18T02:46:51;96973.56;;;19.06;79.76
55914;BME280;58179;48.776;9.124;2022-08-18T02:49:17;96967.56;;;19.09;80.63
55914;BME280;58179;48.776;9.124;2022-08-18T02:51:44;96965.69;;;19.09;79.54
55914;BME280;58179;48.776;9.124;2022-08-18T02:54:10;96970.56;;;19.07;79.89
55914;BME280;58179;48.776;9.124;2022-08-18T02:56:37;96969.59;;;19.03;78.82
55914;BME280;58179;48.776;9.124;2022-08-18T02:59:07;96974.03;;;19.08;79.43
55914;BME280;58179;48.776;9.124;2022-08-18T03:01:37;96970.56;;;18.99;78.90
55914;BME280;58179;48.776;9.124;2022-08-18T03:04:06;96970.72;;;18.93;79.62
55914;BME280;58179;48.776;9.124;2022-08-18T03:06:35;96976.88;;;18.94;80.06
55914;BME280;58179;48.776;9.124;2022-08-18T03:09:03;96963.78;;;19.01;79.11
55914;BME280;58179;48.776;9.124;2022-08-18T03:11:29;96961.41;;;19.00;79.28
55914;BME280;58179;48.776;9.124;2022-08-18T03:13:56;96950.81;;;18.94;79.17
55914;BME280;58179;48.776;9.124;2022-08-18T03:16:23;96953.97;;;18.88;80.45
55914;BME280;58179;48.776;9.124;2022-08-18T03:18:52;96958.41;;;18.84;81.37
55914;BME280;58179;48.776;9.124;2022-08-18T03:21:22;96957.13;;;18.81;81.88
55914;BME280;58179;48.776;9.124;2022-08-18T03:23:50;96961.69;;;18.81;81.99
55914;BME280;58179;48.776;9.124;2022-08-18T03:26:19;96966.25;;;18.80;82.43
55914;BME280;58179;48.776;9.124;2022-08-18T03:28:50;96962.03;;;18.79;83.00
55914;BME280;58179;48.776;9.124;2022-08-18T03:31:18;96954.75;;;18.80;83.26
55914;BME280;58179;48.776;9.124;2022-08-18T03:33:45;96949.06;;;18.81;82.08
55914;BME280;58179;48.776;9.124;2022-08-18T03:36:16;96955.88;;;18.79;81.34
55914;BME280;58179;48.776;9.124;2022-08-18T03:38:45;96949.53;;;18.75;81.98
55914;BME280;58179;48.776;9.124;2022-08-18T03:41:15;96943.56;;;18.78;79.53
55914;BME280;58179;48.776;9.124;2022-08-18T03:43:42;96947.16;;;18.73;79.48
55914;BME280;58179;48.776;9.124;2022-08-18T03:46:11;96944.66;;;18.68;81.32
55914;BME280;58179;48.776;9.124;2022-08-18T03:48:40;96948.44;;;18.67;81.88
55914;BME280;58179;48.776;9.124;2022-08-18T03:51:13;96948.44;;;18.67;82.27
55914;BME280;58179;48.776;9.124;2022-08-18T03:53:40;96945.75;;;18.67;82.66
55914;BME280;58179;48.776;9.124;2022-08-18T03:56:09;96943.56;;;18.69;83.03
55914;BME280;58179;48.776;9.124;2022-08-18T03:58:40;96939.78;;;18.70;82.57
55914;BME280;58179;48.776;9.124;2022-08-18T04:01:06;96945.13;;;18.70;80.63
55914;BME280;58179;48.776;9.124;2022-08-18T04:03:32;96944.16;;;18.66;81.91
55914;BME280;58179;48.776;9.124;2022-08-18T04:05:58;96938.97;;;18.70;81.84
55914;BME280;58179;48.776;9.124;2022-08-18T04:08:24;96943.06;;;18.67;82.95
55914;BME280;58179;48.776;9.124;2022-08-18T04:10:50;96943.84;;;18.68;83.02
55914;BME280;58179;48.776;9.124;2022-08-18T04:13:17;96948.13;;;18.69;82.57
55914;BME280;58179;48.776;9.124;2022-08-18T04:15:43;96951.13;;;18.67;82.94
55914;BME280;58179;48.776;9.124;2022-08-18T04:18:09;96950.31;;;18.67;83.57
55914;BME280;58179;48.776;9.124;2022-08-18T04:20:36;96954.59;;;18.68;83.66
55914;BME280;58179;48.776;9.124;2022-08-18T04:23:03;96955.69;;;18.67;84.01
55914;BME280;58179;48.776;9.124;2022-08-18T04:25:29;96958.06;;;18.68;81.94
55914;BME280;58179;48.776;9.124;2022-08-18T04:27:57;96961.34;;;18.65;82.77
55914;BME280;58179;48.776;9.124;2022-08-18T04:30:27;96959.31;;;18.62;83.27
55914;BME280;58179;48.776;9.124;2022-08-18T04:32:53;96964.69;;;18.62;83.70
55914;BME280;58179;48.776;9.124;2022-08-18T04:35:19;96972.72;;;18.62;83.99
55914;BME280;58179;48.776;9.124;2022-08-18T04:37:46;96968.94;;;18.63;84.20
55914;BME280;58179;48.776;9.124;2022-08-18T04:40:12;96968.16;;;18.63;84.36
55914;BME280;58179;48.776;9.124;2022-08-18T04:42:39;96969.41;;;18.65;83.93
55914;BME280;58179;48.776;9.124;2022-08-18T04:45:06;96969.41;;;18.65;84.22
55914;BME280;58179;48.776;9.124;2022-08-18T04:47:34;96970.19;;;18.66;84.19
55914;BME280;58179;48.776;9.124;2022-08-18T04:50:01;96969.41;;;18.65;82.96
55914;BME280;58179;48.776;9.124;2022-08-18T04:52:27;96976.97;;;18.63;83.68
55914;BME280;58179;48.776;9.124;2022-08-18T04:55:11;96988.00;;;18.62;83.41
55914;BME280;58179;48.776;9.124;2022-08-18T04:57:38;96991.78;;;18.61;84.03
55914;BME280;58179;48.776;9.124;2022-08-18T05:00:06;96991.47;;;18.62;84.58
55914;BME280;58179;48.776;9.124;2022-08-18T05:02:34;97000.47;;;18.66;84.99
55914;BME280;58179;48.776;9.124;2022-08-18T05:05:00;96996.88;;;18.71;84.70
55914;BME280;58179;48.776;9.124;2022-08-18T05:07:28;97002.38;;;18.74;84.95
55914;BME280;58179;48.776;9.124;2022-08-18T05:09:55;97004.94;;;18.79;84.66
55914;BME280;58179;48.776;9.124;2022-08-18T05:12:21;96997.34;;;18.81;84.75
55914;BME280;58179;48.776;9.124;2022-08-18T05:14:47;96997.84;;;18.83;84.89
55914;BME280;58179;48.776;9.124;2022-08-18T05:17:14;96992.63;;;18.87;85.16
55914;BME280;58179;48.776;9.124;2022-08-18T05:19:42;96986.94;;;18.88;84.82
55914;BME280;58179;48.776;9.124;2022-08-18T05:22:09;96989.31;;;18.90;84.52
55914;BME280;58179;48.776;9.124;2022-08-18T05:24:35;96981.09;;;18.95;84.57
55914;BME280;58179;48.776;9.124;2022-08-18T05:27:02;96983.97;;;18.99;84.25
55914;BME280;58179;48.776;9.124;2022-08-18T05:29:29;96984.91;;;19.03;84.21
55914;BME280;58179;48.776;9.124;2022-08-18T05:32:03;96985.06;;;19.06;84.03
55914;BME280;58179;48.776;9.124;2022-08-18T05:34:33;96975.28;;;19.10;82.70
55914;BME280;58179;48.776;9.124;2022-08-18T05:37:19;96981.28;;;19.16;83.70
55914;BME280;58179;48.776;9.124;2022-08-18T05:39:55;96973.09;;;19.21;83.55
55914;BME280;58179;48.776;9.124;2022-08-18T05:42:23;96974.50;;;19.27;83.90
55914;BME280;58179;48.776;9.124;2022-08-18T05:44:54;96980.47;;;19.32;83.71
55914;BME280;58179;48.776;9.124;2022-08-18T05:47:24;96975.75;;;19.38;83.91
55914;BME280;58179;48.776;9.124;2022-08-18T05:49:52;96975.09;;;19.41;83.90
55914;BME280;58179;48.776;9.124;2022-08-18T05:52:27;96966.75;;;19.43;83.31
55914;BME280;58179;48.776;9.124;2022-08-18T05:55:00;96962.16;;;19.43;82.93
55914;BME280;58179;48.776;9.124;2022-08-18T05:57:49;96951.44;;;19.43;82.60
55914;BME280;58179;48.776;9.124;2022-08-18T06:00:18;96969.13;;;19.44;83.16
55914;BME280;58179;48.776;9.124;2022-08-18T06:02:51;96971.50;;;19.46;83.10
55914;BME280;58179;48.776;9.124;2022-08-18T06:05:24;96969.28;;;19.48;83.74
55914;BME280;58179;48.776;9.124;2022-08-18T06:07:57;96977.81;;;19.50;83.78
55914;BME280;58179;48.776;9.124;2022-08-18T06:10:24;96974.03;;;19.51;83.85
55914;BME280;58179;48.776;9.124;2022-08-18T06:12:54;96983.34;;;19.53;83.76
55914;BME280;58179;48.776;9.124;2022-08-18T06:15:26;96984.94;;;19.54;83.01
55914;BME280;58179;48.776;9.124;2022-08-18T06:18:22;96981.59;;;19.57;82.57
55914;BME280;58179;48.776;9.124;2022-08-18T06:21:11;96976.84;;;19.63;82.91
55914;BME280;58179;48.776;9.124;2022-08-18T06:23:50;96996.59;;;19.67;82.72
55914;BME280;58179;48.776;9.124;2022-08-18T06:26:28;97016.00;;;19.73;82.49
55914;BME280;58179;48.776;9.124;2022-08-18T06:29:21;97014.91;;;19.74;79.14
55914;BME280;58179;48.776;9.124;2022-08-18T06:31:59;97016.97;;;19.77;79.51
55914;BME280;58179;48.776;9.124;2022-08-18T06:34:40;97011.72;;;19.80;78.89
55914;BME280;58179;48.776;9.124;2022-08-18T06:37:15;97011.91;;;19.84;79.18
55914;BME280;58179;48.776;9.124;2022-08-18T06:39:47;97008.56;;;19.87;79.45
55914;BME280;58179;48.776;9.124;2022-08-18T06:42:17;97004.13;;;19.91;79.62
55914;BME280;58179;48.776;9.124;2022-08-18T06:44:46;97001.25;;;19.96;79.81
55914;BME280;58179;48.776;9.124;2022-08-18T06:47:25;97000.63;;;19.99;79.46
55914;BME280;58179;48.776;9.124;2022-08-18T06:50:03;96985.75;;;20.01;78.75
55914;BME280;58179;48.776;9.124;2022-08-18T06:52:33;96975.94;;;20.05;79.12
55914;BME280;58179;48.776;9.124;2022-08-18T06:55:07;96990.31;;;20.09;78.92
55914;BME280;58179;48.776;9.124;2022-08-18T06:57:37;96987.13;;;20.16;79.04
55914;BME280;58179;48.776;9.124;2022-08-18T07:00:10;96982.53;;;20.17;78.70
55914;BME280;58179;48.776;9.124;2022-08-18T07:02:49;96986.16;;;20.21;78.52
55914;BME280;58179;48.776;9.124;2022-08-18T07:05:23;96987.09;;;20.25;78.51
55914;BME280;58179;48.776;9.124;2022-08-18T07:08:09;96991.50;;;20.29;77.72
55914;BME280;58179;48.776;9.124;2022-08-18T07:10:40;96989.78;;;20.33;77.04
55914;BME280;58179;48.776;9.124;2022-08-18T07:13:23;97000.22;;;20.35;74.87
55914;BME280;58179;48.776;9.124;2022-08-18T07:15:52;97009.97;;;20.39;75.29
55914;BME280;58179;48.776;9.124;2022-08-18T07:18:26;97013.94;;;20.42;75.43
55914;BME280;58179;48.776;9.124;2022-08-18T07:20:56;97027.50;;;20.45;74.85
55914;BME280;58179;48.776;9.124;2022-08-18T07:23:31;97037.63;;;20.48;74.86
55914;BME280;58179;48.776;9.124;2022-08-18T07:28:33;97041.09;;;20.49;74.73
55914;BME280;58179;48.776;9.124;2022-08-18T07:31:21;97039.22;;;20.50;74.92
55914;BME280;58179;48.776;9.124;2022-08-18T07:33:56;97044.91;;;20.48;74.64
55914;BME280;58179;48.776;9.124;2022-08-18T07:36:29;97054.41;;;20.45;74.87
55914;BME280;58179;48.776;9.124;2022-08-18T07:39:02;97053.16;;;20.43;74.13
55914;BME280;58179;48.776;9.124;2022-08-18T07:41:35;97057.75;;;20.42;73.44
55914;BME280;58179;48.776;9.124;2022-08-18T07:44:16;97056.78;;;20.38;73.77
55914;BME280;58179;48.776;9.124;2022-08-18T07:46:54;97056.97;;;20.33;74.62
55914;BME280;58179;48.776;9.124;2022-08-18T07:49:23;97064.53;;;20.31;75.51
55914;BME280;58179;48.776;9.124;2022-08-18T07:51:55;97055.25;;;20.29;75.80
55914;BME280;58179;48.776;9.124;2022-08-18T07:54:42;97051.28;;;20.26;75.93
55914;BME280;58179;48.776;9.124;2022-08-18T07:57:15;97053.66;;;20.28;76.33
55914;BME280;58179;48.776;9.124;2022-08-18T07:59:51;97059.94;;;20.32;76.24
55914;BME280;58179;48.776;9.124;2022-08-18T08:02:30;97051.28;;;20.26;74.82
55914;BME280;58179;48.776;9.124;2022-08-18T08:05:07;97051.91;;;20.23;74.60
55914;BME280;58179;48.776;9.124;2022-08-18T08:07:44;97052.88;;;20.19;74.74
55914;BME280;58179;48.776;9.124;2022-08-18T08:10:29;97054.78;;;20.18;75.79
55914;BME280;58179;48.776;9.124;2022-08-18T08:13:11;97057.00;;;20.16;75.06
55914;BME280;58179;48.776;9.124;2022-08-18T08:15:55;97055.41;;;20.15;76.30
55914;BME280;58179;48.776;9.124;2022-08-18T08:18:40;97047.81;;;20.17;76.25
55914;BME280;58179;48.776;9.124;2022-08-18T08:21:13;97034.06;;;20.19;77.14
55914;BME280;58179;48.776;9.124;2022-08-18T08:23:49;97012.72;;;20.22;77.29
55914;BME280;58179;48.776;9.124;2022-08-18T08:26:30;97007.97;;;20.28;77.02
55914;BME280;58179;48.776;9.124;2022-08-18T08:29:13;97020.13;;;20.34;76.18
55914;BME280;58179;48.776;9.124;2022-08-18T08:31:51;97016.16;;;20.40;75.54
55914;BME280;58179;48.776;9.124;2022-08-18T08:34:24;97013.91;;;20.51;76.32
55914;BME280;58179;48.776;9.124;2022-08-18T08:36:59;97012.41;;;20.62;75.79
55914;BME280;58179;48.776;9.124;2022-08-18T08:39:34;97017.09;;;20.73;75.77
55914;BME280;58179;48.776;9.124;2022-08-18T08:42:07;97021.56;;;20.90;74.79
55914;BME280;58179;48.776;9.124;2022-08-18T08:44:40;97012.81;;;21.02;74.54
55914;BME280;58179;48.776;9.124;2022-08-18T08:47:17;97013.88;;;21.09;73.33
55914;BME280;58179;48.776;9.124;2022-08-18T08:49:49;97013.50;;;21.19;72.24
55914;BME280;58179;48.776;9.124;2022-08-18T08:52:23;97016.84;;;21.37;72.07
55914;BME280;58179;48.776;9.124;2022-08-18T08:54:55;97009.16;;;21.48;72.70
55914;BME280;58179;48.776;9.124;2022-08-18T08:57:30;96998.22;;;21.65;72.69
55914;BME280;58179;48.776;9.124;2022-08-18T09:00:01;97000.63;;;21.79;73.35
55914;BME280;58179;48.776;9.124;2022-08-18T09:02:55;97022.75;;;21.84;71.56
55914;BME280;58179;48.776;9.124;2022-08-18T09:05:29;97024.38;;;21.97;69.80
55914;BME280;58179;48.776;9.124;2022-08-18T09:08:33;97006.03;;;21.91;70.19
55914;BME280;58179;48.776;9.124;2022-08-18T09:11:32;96989.06;;;21.90;71.07
55914;BME280;58179;48.776;9.124;2022-08-18T09:14:43;96992.34;;;21.96;71.47
55914;BME280;58179;48.776;9.124;2022-08-18T09:17:33;96986.34;;;22.11;72.17
55914;BME280;58179;48.776;9.124;2022-08-18T09:20:26;96971.88;;;22.28;72.24
55914;BME280;58179;48.776;9.124;2022-08-18T09:23:02;96977.72;;;22.42;71.60
55914;BME280;58179;48.776;9.124;2022-08-18T09:25:49;96976.81;;;22.62;71.49
55914;BME280;58179;48.776;9.124;2022-08-18T09:28:19;96980.41;;;22.78;69.95
55914;BME280;58179;48.776;9.124;2022-08-18T09:34:12;96992.34;;;22.77;68.45
55914;BME280;58179;48.776;9.124;2022-08-18T09:37:02;96989.28;;;22.79;69.72
55914;BME280;58179;48.776;9.124;2022-08-18T09:39:33;96996.06;;;22.85;68.57
55914;BME280;58179;48.776;9.124;2022-08-18T09:42:32;97001.00;;;22.83;69.00
55914;BME280;58179;48.776;9.124;2022-08-18T09:45:10;97006.94;;;22.89;69.24
55914;BME280;58179;48.776;9.124;2022-08-18T09:48:07;97004.78;;;22.94;69.28
55914;BME280;58179;48.776;9.124;2022-08-18T09:50:56;97017.72;;;22.89;65.85
55914;BME280;58179;48.776;9.124;2022-08-18T09:53:51;97021.25;;;22.77;66.94
55914;BME280;58179;48.776;9.124;2022-08-18T10:00:21;97026.88;;;22.84;68.50
55914;BME280;58179;48.776;9.124;2022-08-18T10:03:18;97021.09;;;22.98;67.63
55914;BME280;58179;48.776;9.124;2022-08-18T10:15:00;97008.41;;;23.94;65.66
55914;BME280;58179;48.776;9.124;2022-08-18T10:17:45;97001.41;;;23.93;63.75
55914;BME280;58179;48.776;9.124;2022-08-18T10:20:26;96985.50;;;24.04;62.96
55914;BME280;58179;48.776;9.124;2022-08-18T10:22:56;96988.25;;;24.07;62.85
55914;BME280;58179;48.776;9.124;2022-08-18T10:25:36;96990.66;;;24.40;63.32
55914;BME280;58179;48.776;9.124;2022-08-18T10:28:04;96990.94;;;24.51;63.52
55914;BME280;58179;48.776;9.124;2022-08-18T10:31:04;96966.94;;;24.49;62.80
55914;BME280;58179;48.776;9.124;2022-08-18T10:34:05;96955.69;;;24.66;63.69
55914;BME280;58179;48.776;9.124;2022-08-18T10:36:52;96948.19;;;25.11;63.58
55914;BME280;58179;48.776;9.124;2022-08-18T10:39:22;96936.78;;;25.40;61.41
55914;BME280;58179;48.776;9.124;2022-08-18T10:42:05;96918.00;;;25.51;61.43
55914;BME280;58179;48.776;9.124;2022-08-18T10:44:41;96916.06;;;25.51;59.78
55914;BME280;58179;48.776;9.124;2022-08-18T10:47:09;96942.25;;;25.43;59.07
55914;BME280;58179;48.776;9.124;2022-08-18T10:49:48;96957.00;;;25.27;59.30
55914;BME280;58179;48.776;9.124;2022-08-18T10:52:57;96950.31;;;25.21;59.76
55914;BME280;58179;48.776;9.124;2022-08-18T10:55:51;96937.56;;;25.40;59.93
55914;BME280;58179;48.776;9.124;2022-08-18T10:58:41;96937.06;;;25.54;58.24
55914;BME280;58179;48.776;9.124;2022-08-18T11:01:23;96928.34;;;25.64;57.99
55914;BME280;58179;48.776;9.124;2022-08-18T11:04:03;96915.75;;;25.56;56.86
55914;BME280;58179;48.776;9.124;2022-08-18T11:06:38;96915.75;;;25.56;59.03
55914;BME280;58179;48.776;9.124;2022-08-18T11:09:06;96917.56;;;25.49;58.32
55914;BME280;58179;48.776;9.124;2022-08-18T11:11:36;96923.50;;;25.35;58.05
55914;BME280;58179;48.776;9.124;2022-08-18T11:14:17;96919.31;;;25.18;58.42
55914;BME280;58179;48.776;9.124;2022-08-18T11:16:53;96931.41;;;25.05;58.79
55914;BME280;58179;48.776;9.124;2022-08-18T11:19:23;96940.72;;;24.88;57.79
55914;BME280;58179;48.776;9.124;2022-08-18T11:21:51;96924.44;;;24.69;57.88
55914;BME280;58179;48.776;9.124;2022-08-18T11:24:20;96923.06;;;24.59;59.44
55914;BME280;58179;48.776;9.124;2022-08-18T11:26:49;96926.66;;;24.63;59.79
55914;BME280;58179;48.776;9.124;2022-08-18T11:29:30;96930.59;;;24.85;60.69
55914;BME280;58179;48.776;9.124;2022-08-18T11:32:05;96934.28;;;25.12;59.73
55914;BME280;58179;48.776;9.124;2022-08-18T11:34:37;96930.22;;;25.02;57.48
55914;BME280;58179;48.776;9.124;2022-08-18T11:37:12;96919.16;;;24.92;58.43
55914;BME280;58179;48.776;9.124;2022-08-18T11:39:48;96926.66;;;24.83;58.61
55914;BME280;58179;48.776;9.124;2022-08-18T11:42:16;96929.03;;;24.84;59.26
55914;BME280;58179;48.776;9.124;2022-08-18T11:44:45;96924.59;;;24.76;58.94
55914;BME280;58179;48.776;9.124;2022-08-18T11:47:19;96922.09;;;24.67;58.01
55914;BME280;58179;48.776;9.124;2022-08-18T11:49:56;96918.19;;;24.65;59.05
55914;BME280;58179;48.776;9.124;2022-08-18T11:52:26;96910.47;;;24.67;58.92
55914;BME280;58179;48.776;9.124;2022-08-18T11:55:00;96912.47;;;24.70;59.63
55914;BME280;58179;48.776;9.124;2022-08-18T11:57:40;96897.88;;;24.75;59.66
55914;BME280;58179;48.776;9.124;2022-08-18T12:00:53;96893.03;;;24.84;59.36
55914;BME280;58179;48.776;9.124;2022-08-18T12:03:29;96887.47;;;24.77;58.46
55914;BME280;58179;48.776;9.124;2022-08-18T12:06:07;96884.88;;;24.80;58.68
55914;BME280;58179;48.776;9.124;2022-08-18T12:08:36;96879.94;;;24.86;57.00
55914;BME280;58179;48.776;9.124;2022-08-18T12:11:16;96881.59;;;24.90;57.27
55914;BME280;58179;48.776;9.124;2022-08-18T12:13:47;96876.56;;;25.08;57.53
55914;BME280;58179;48.776;9.124;2022-08-18T12:16:35;96878.25;;;25.16;57.03
55914;BME280;58179;48.776;9.124;2022-08-18T12:19:03;96884.31;;;25.29;56.18
55914;BME280;58179;48.776;9.124;2022-08-18T12:21:29;96885.94;;;25.33;55.69
55914;BME280;58179;48.776;9.124;2022-08-18T12:23:55;96876.88;;;25.45;54.20
55914;BME280;58179;48.776;9.124;2022-08-18T12:26:21;96879.94;;;25.43;54.86
55914;BME280;58179;48.776;9.124;2022-08-18T12:28:47;96875.41;;;25.51;56.05
55914;BME280;58179;48.776;9.124;2022-08-18T12:31:13;96874.44;;;25.59;54.19
55914;BME280;58179;48.776;9.124;2022-08-18T12:33:40;96878.47;;;25.92;55.00
55914;BME280;58179;48.776;9.124;2022-08-18T12:36:07;96878.28;;;26.04;52.94
55914;BME280;58179;48.776;9.124;2022-08-18T12:38:33;96870.78;;;26.20;52.20
55914;BME280;58179;48.776;9.124;2022-08-18T12:41:00;96867.69;;;26.44;52.76
55914;BME280;58179;48.776;9.124;2022-08-18T12:43:26;96868.22;;;26.57;51.68
55914;BME280;58179;48.776;9.124;2022-08-18T12:45:52;96868.47;;;26.75;51.17
55914;BME280;58179;48.776;9.124;2022-08-18T12:48:18;96858.44;;;26.79;50.55
55914;BME280;58179;48.776;9.124;2022-08-18T12:50:45;96857.06;;;26.92;51.97
55914;BME280;58179;48.776;9.124;2022-08-18T12:53:12;96851.50;;;27.15;51.46
55914;BME280;58179;48.776;9.124;2022-08-18T12:55:41;96854.19;;;27.11;49.42
55914;BME280;58179;48.776;9.124;2022-08-18T12:58:08;96848.41;;;27.16;48.72
55914;BME280;58179;48.776;9.124;2022-08-18T13:00:34;96826.75;;;27.23;46.68
55914;BME280;58179;48.776;9.124;2022-08-18T13:03:01;96820.59;;;27.30;47.41
55914;BME280;58179;48.776;9.124;2022-08-18T13:05:27;96828.44;;;27.35;46.53
55914;BME280;58179;48.776;9.124;2022-08-18T13:07:57;96817.44;;;27.21;45.98
55914;BME280;58179;48.776;9.124;2022-08-18T13:10:23;96816.94;;;27.12;47.12
55914;BME280;58179;48.776;9.124;2022-08-18T13:12:49;96799.41;;;27.06;48.53
55914;BME280;58179;48.776;9.124;2022-08-18T13:15:15;96798.41;;;27.21;48.37
55914;BME280;58179;48.776;9.124;2022-08-18T13:17:41;96794.13;;;27.23;47.06
55914;BME280;58179;48.776;9.124;2022-08-18T13:20:11;96787.56;;;27.24;46.64
55914;BME280;58179;48.776;9.124;2022-08-18T13:22:38;96786.69;;;27.17;47.21
55914;BME280;58179;48.776;9.124;2022-08-18T13:25:09;96781.56;;;27.08;46.67
55914;BME280;58179;48.776;9.124;2022-08-18T13:27:36;96790.84;;;27.04;47.55
55914;BME280;58179;48.776;9.124;2022-08-18T13:30:06;96791.28;;;27.09;47.46
55914;BME280;58179;48.776;9.124;2022-08-18T13:32:32;96784.47;;;27.29;47.21
55914;BME280;58179;48.776;9.124;2022-08-18T13:34:58;96794.25;;;27.34;47.04
55914;BME280;58179;48.776;9.124;2022-08-18T13:37:25;96796.97;;;27.34;47.54
55914;BME280;58179;48.776;9.124;2022-08-18T13:39:53;96803.69;;;27.47;47.48
55914;BME280;58179;48.776;9.124;2022-08-18T13:42:20;96799.25;;;27.69;46.75
55914;BME280;58179;48.776;9.124;2022-08-18T13:44:46;96794.41;;;27.99;47.06
55914;BME280;58179;48.776;9.124;2022-08-18T13:47:12;96806.72;;;28.37;46.71
55914;BME280;58179;48.776;9.124;2022-08-18T13:49:39;96812.66;;;28.57;45.04